Home   Weather   USA   Princeton   Past weeks
Flag for USA

Past Weather in Princeton, Indiana, USA — Yesterday and Last 2 Weeks

Currently: 71 °F. Cloudy. (Weather station: Mount Carmel Municipal Airport, USA). See more current weather

Past Weather in Princeton — Graph

°F

Princeton Temperature Yesterday

Maximum temperature yesterday: 89 °F (at 2:35 pm)
Minimum temperature yesterday: 72 °F (at 5:35 am)
Average temperature yesterday: 81 °F

High & Low Weather Summary for the Past Weeks

 TemperatureHumidityPressure
High93 °F (Jun 18, 2:35 pm)98% (Jun 9, 1:55 am)30.10 "Hg (Jun 9, 1:55 am)
Low57 °F (Jun 17, 5:55 am)27% (Jun 14, 5:35 pm)29.61 "Hg (Jun 21, 4:35 am)
Average76 °F73%29.92 "Hg
* Reported Jun 6 10:15 am — Jun 21 10:55 am, Princeton. Weather by CustomWeather, © 2021

Note: Actual official high and low records may vary slightly from our data, if they occured in-between our weather recording intervals... More about our weather records

Princeton Weather History for the Previous 24 Hours

Scroll right to see more
 ConditionsComfort  
Time TempWeatherWind HumidityBarometerVisibility
10:55 am
Mon, Jun 21
69 °FThunderstorms. Overcast.8 mph86%29.80 "Hg10 mi
10:35 am69 °FThunderstorms. More clouds than sun.8 mph85%29.80 "Hg10 mi
10:15 am72 °FThunderstorms. Mostly cloudy.8 mph87%29.79 "Hg10 mi
9:55 am73 °FThundershowers. Overcast.8 mph84%29.78 "Hg10 mi
9:35 am73 °FOvercast.9 mph81%29.78 "Hg10 mi
9:15 am74 °FMostly cloudy.8 mph80%29.77 "Hg10 mi
8:55 am74 °FMore clouds than sun.8 mph78%29.76 "Hg10 mi
8:35 am74 °FMore clouds than sun.9 mph78%29.75 "Hg10 mi
8:15 am73 °FCloudy.7 mph78%29.75 "Hg10 mi
7:55 am73 °FOvercast.6 mph78%29.74 "Hg10 mi
7:35 am73 °FOvercast.8 mph78%29.74 "Hg10 mi
7:15 am73 °FMore clouds than sun.7 mph76%29.73 "Hg10 mi
6:55 am73 °FOvercast.8 mph77%29.71 "Hg10 mi
6:35 am73 °FPartly sunny.7 mph75%29.71 "Hg10 mi
6:15 am74 °FSunny.9 mph71%29.71 "Hg10 mi
5:55 am74 °FSunny.10 mph70%29.71 "Hg10 mi
5:35 am76 °FScattered clouds.14 mph67%29.69 "Hg10 mi
5:15 am75 °FLight rain. Passing clouds.18 mph70%29.66 "Hg10 mi
4:55 am78 °FPassing clouds.18 mph68%29.61 "Hg10 mi
4:35 am79 °FLight rain. Passing clouds.20 mph72%29.61 "Hg10 mi
4:15 am79 °FClear.14 mph71%29.63 "Hg10 mi
3:55 am79 °FPassing clouds.14 mph71%29.64 "Hg10 mi
3:35 am80 °FPassing clouds.17 mph70%29.64 "Hg10 mi
2:55 am80 °FPassing clouds.15 mph70%29.64 "Hg10 mi
2:35 am79 °FClear.15 mph72%29.64 "Hg10 mi
1:55 am79 °FClear.12 mph72%29.66 "Hg10 mi
1:15 am78 °FClear.8 mph73%29.68 "Hg10 mi
12:55 am79 °FClear.12 mph72%29.68 "Hg10 mi
12:35 am79 °FClear.13 mph72%29.66 "Hg10 mi
12:15 am79 °FClear.13 mph72%29.66 "Hg10 mi
11:55 pm
Sun, Jun 20
79 °FClear.12 mph72%29.66 "Hg10 mi
11:35 pm78 °FClear.9 mph73%29.67 "Hg10 mi
11:15 pm79 °FClear.10 mph71%29.68 "Hg10 mi
10:55 pm80 °FClear.10 mph68%29.67 "Hg10 mi
10:35 pm80 °FClear.10 mph69%29.67 "Hg10 mi
10:15 pm81 °FClear.10 mph66%29.67 "Hg10 mi
9:55 pm80 °FPassing clouds.10 mph68%29.69 "Hg10 mi
9:35 pm81 °FPassing clouds.9 mph68%29.69 "Hg10 mi
9:15 pm81 °FClear.8 mph67%29.68 "Hg10 mi
8:55 pm82 °FClear.9 mph67%29.67 "Hg10 mi
8:35 pm82 °FClear.9 mph67%29.67 "Hg10 mi
8:15 pm82 °FSunny.9 mph67%29.68 "Hg10 mi
7:55 pm82 °FSunny.7 mph64%29.68 "Hg10 mi
7:15 pm85 °FSunny.10 mph59%29.68 "Hg10 mi
6:35 pm86 °FScattered clouds.10 mph58%29.70 "Hg10 mi
6:15 pm87 °FScattered clouds.9 mph56%29.71 "Hg10 mi
5:55 pm87 °FScattered clouds.12 mph57%29.71 "Hg10 mi
5:35 pm87 °FPartly sunny.13 mph57%29.70 "Hg10 mi
5:15 pm87 °FPartly sunny.12 mph56%29.71 "Hg10 mi
4:55 pm88 °FScattered clouds.13 mph56%29.71 "Hg10 mi
4:35 pm87 °FPartly sunny.14 mph56%29.71 "Hg10 mi
3:55 pm89 °FScattered clouds.14 mph56%29.71 "Hg10 mi
3:35 pm89 °FScattered clouds.10 mph56%29.71 "Hg10 mi
3:15 pm89 °FPartly sunny.10 mph59%29.72 "Hg10 mi
2:55 pm89 °FBroken clouds.10 mph58%29.73 "Hg10 mi
2:35 pm89 °FScattered clouds.12 mph58%29.73 "Hg10 mi
2:15 pm89 °FScattered clouds.13 mph58%29.73 "Hg10 mi
1:55 pm88 °FScattered clouds.9 mph58%29.73 "Hg10 mi
1:15 pm88 °FBroken clouds.12 mph61%29.73 "Hg10 mi
12:55 pm86 °FPartly sunny.8 mph64%29.74 "Hg10 mi
12:35 pm87 °FScattered clouds.7 mph65%29.74 "Hg10 mi
12:15 pm86 °FSunny.9 mph65%29.75 "Hg10 mi
Weather by CustomWeather, © 2021

See weather overview